sensor_id;sensor_type;location;lat;lon;timestamp;P1;durP1;ratioP1;P2;durP2;ratioP2
9643;SDS011;4860;50.900;4.720;2023-05-19T00:01:33;0.40;;;0.40;;
9643;SDS011;4860;50.900;4.720;2023-05-19T00:04:01;0.30;;;0.30;;
9643;SDS011;4860;50.900;4.720;2023-05-19T00:06:30;0.30;;;0.30;;
9643;SDS011;4860;50.900;4.720;2023-05-19T00:09:03;0.30;;;0.30;;
9643;SDS011;4860;50.900;4.720;2023-05-19T00:11:31;0.40;;;0.40;;
9643;SDS011;4860;50.900;4.720;2023-05-19T00:13:58;0.30;;;0.30;;
9643;SDS011;4860;50.900;4.720;2023-05-19T00:16:24;0.28;;;0.28;;
9643;SDS011;4860;50.900;4.720;2023-05-19T00:18:51;0.30;;;0.30;;
9643;SDS011;4860;50.900;4.720;2023-05-19T00:21:18;0.30;;;0.30;;
9643;SDS011;4860;50.900;4.720;2023-05-19T00:23:44;0.40;;;0.40;;
9643;SDS011;4860;50.900;4.720;2023-05-19T00:26:11;0.30;;;0.30;;
9643;SDS011;4860;50.900;4.720;2023-05-19T00:28:37;0.20;;;0.20;;
9643;SDS011;4860;50.900;4.720;2023-05-19T00:31:03;0.30;;;0.30;;
9643;SDS011;4860;50.900;4.720;2023-05-19T00:33:30;0.30;;;0.30;;
9643;SDS011;4860;50.900;4.720;2023-05-19T00:35:57;0.35;;;0.35;;
9643;SDS011;4860;50.900;4.720;2023-05-19T00:38:24;0.30;;;0.30;;
9643;SDS011;4860;50.900;4.720;2023-05-19T00:40:50;0.30;;;0.30;;
9643;SDS011;4860;50.900;4.720;2023-05-19T00:43:16;0.30;;;0.30;;
9643;SDS011;4860;50.900;4.720;2023-05-19T00:45:42;0.30;;;0.30;;
9643;SDS011;4860;50.900;4.720;2023-05-19T00:48:09;0.30;;;0.30;;
9643;SDS011;4860;50.900;4.720;2023-05-19T00:50:35;0.40;;;0.40;;
9643;SDS011;4860;50.900;4.720;2023-05-19T00:53:01;0.30;;;0.30;;
9643;SDS011;4860;50.900;4.720;2023-05-19T00:55:28;0.40;;;0.40;;
9643;SDS011;4860;50.900;4.720;2023-05-19T00:57:55;0.40;;;0.40;;
9643;SDS011;4860;50.900;4.720;2023-05-19T01:00:22;0.38;;;0.38;;
9643;SDS011;4860;50.900;4.720;2023-05-19T01:02:48;0.30;;;0.30;;
9643;SDS011;4860;50.900;4.720;2023-05-19T01:05:15;0.40;;;0.40;;
9643;SDS011;4860;50.900;4.720;2023-05-19T01:07:41;0.40;;;0.40;;
9643;SDS011;4860;50.900;4.720;2023-05-19T01:10:08;0.30;;;0.30;;
9643;SDS011;4860;50.900;4.720;2023-05-19T01:12:35;0.40;;;0.40;;
9643;SDS011;4860;50.900;4.720;2023-05-19T01:15:02;0.32;;;0.32;;
9643;SDS011;4860;50.900;4.720;2023-05-19T01:17:33;0.30;;;0.30;;
9643;SDS011;4860;50.900;4.720;2023-05-19T01:30:39;0.40;;;0.40;;
9643;SDS011;4860;50.900;4.720;2023-05-19T01:33:08;0.30;;;0.30;;
9643;SDS011;4860;50.900;4.720;2023-05-19T01:35:35;0.30;;;0.30;;
9643;SDS011;4860;50.900;4.720;2023-05-19T01:38:02;0.30;;;0.30;;
9643;SDS011;4860;50.900;4.720;2023-05-19T01:40:28;0.30;;;0.30;;
9643;SDS011;4860;50.900;4.720;2023-05-19T01:42:56;0.40;;;0.40;;
9643;SDS011;4860;50.900;4.720;2023-05-19T01:45:22;0.30;;;0.30;;
9643;SDS011;4860;50.900;4.720;2023-05-19T01:47:50;0.30;;;0.30;;
9643;SDS011;4860;50.900;4.720;2023-05-19T01:50:17;0.40;;;0.40;;
9643;SDS011;4860;50.900;4.720;2023-05-19T01:52:43;0.30;;;0.30;;
9643;SDS011;4860;50.900;4.720;2023-05-19T01:55:09;0.40;;;0.40;;
9643;SDS011;4860;50.900;4.720;2023-05-19T01:57:40;0.40;;;0.40;;
9643;SDS011;4860;50.900;4.720;2023-05-19T02:08:32;0.30;;;0.30;;
9643;SDS011;4860;50.900;4.720;2023-05-19T02:11:05;0.40;;;0.40;;
9643;SDS011;4860;50.900;4.720;2023-05-19T02:13:33;0.40;;;0.40;;
9643;SDS011;4860;50.900;4.720;2023-05-19T02:16:04;0.40;;;0.40;;
9643;SDS011;4860;50.900;4.720;2023-05-19T02:18:31;0.30;;;0.30;;
9643;SDS011;4860;50.900;4.720;2023-05-19T02:20:58;0.30;;;0.30;;
9643;SDS011;4860;50.900;4.720;2023-05-19T02:23:24;0.30;;;0.30;;
9643;SDS011;4860;50.900;4.720;2023-05-19T02:25:50;0.40;;;0.40;;
9643;SDS011;4860;50.900;4.720;2023-05-19T02:28:16;0.40;;;0.40;;
9643;SDS011;4860;50.900;4.720;2023-05-19T02:30:43;0.30;;;0.30;;
9643;SDS011;4860;50.900;4.720;2023-05-19T02:33:09;0.40;;;0.40;;
9643;SDS011;4860;50.900;4.720;2023-05-19T02:35:35;0.30;;;0.30;;
9643;SDS011;4860;50.900;4.720;2023-05-19T02:38:01;0.40;;;0.40;;
9643;SDS011;4860;50.900;4.720;2023-05-19T02:40:28;0.40;;;0.40;;
9643;SDS011;4860;50.900;4.720;2023-05-19T02:42:54;0.37;;;0.37;;
9643;SDS011;4860;50.900;4.720;2023-05-19T02:45:20;0.37;;;0.37;;
9643;SDS011;4860;50.900;4.720;2023-05-19T02:47:46;0.40;;;0.40;;
9643;SDS011;4860;50.900;4.720;2023-05-19T02:50:12;0.40;;;0.40;;
9643;SDS011;4860;50.900;4.720;2023-05-19T02:52:38;0.30;;;0.30;;
9643;SDS011;4860;50.900;4.720;2023-05-19T02:55:05;0.40;;;0.40;;
9643;SDS011;4860;50.900;4.720;2023-05-19T02:57:31;0.40;;;0.40;;
9643;SDS011;4860;50.900;4.720;2023-05-19T02:59:58;0.40;;;0.40;;
9643;SDS011;4860;50.900;4.720;2023-05-19T03:02:24;0.40;;;0.40;;
9643;SDS011;4860;50.900;4.720;2023-05-19T03:04:50;0.40;;;0.40;;
9643;SDS011;4860;50.900;4.720;2023-05-19T03:07:16;0.40;;;0.40;;
9643;SDS011;4860;50.900;4.720;2023-05-19T03:09:42;0.40;;;0.40;;
9643;SDS011;4860;50.900;4.720;2023-05-19T03:12:08;0.40;;;0.40;;
9643;SDS011;4860;50.900;4.720;2023-05-19T03:14:34;0.40;;;0.40;;
9643;SDS011;4860;50.900;4.720;2023-05-19T03:17:04;0.40;;;0.40;;
9643;SDS011;4860;50.900;4.720;2023-05-19T03:19:34;0.40;;;0.40;;
9643;SDS011;4860;50.900;4.720;2023-05-19T03:22:00;0.40;;;0.40;;
9643;SDS011;4860;50.900;4.720;2023-05-19T03:24:26;0.40;;;0.40;;
9643;SDS011;4860;50.900;4.720;2023-05-19T03:26:52;0.40;;;0.40;;
9643;SDS011;4860;50.900;4.720;2023-05-19T03:29:19;0.30;;;0.30;;
9643;SDS011;4860;50.900;4.720;2023-05-19T03:31:45;0.40;;;0.40;;
9643;SDS011;4860;50.900;4.720;2023-05-19T03:34:11;0.30;;;0.30;;
9643;SDS011;4860;50.900;4.720;2023-05-19T03:36:37;0.40;;;0.40;;
9643;SDS011;4860;50.900;4.720;2023-05-19T03:39:04;0.40;;;0.40;;
9643;SDS011;4860;50.900;4.720;2023-05-19T03:41:31;0.40;;;0.40;;
9643;SDS011;4860;50.900;4.720;2023-05-19T03:43:57;0.40;;;0.40;;
9643;SDS011;4860;50.900;4.720;2023-05-19T03:46:23;0.40;;;0.40;;
9643;SDS011;4860;50.900;4.720;2023-05-19T03:48:49;0.30;;;0.30;;
9643;SDS011;4860;50.900;4.720;2023-05-19T03:51:15;0.30;;;0.30;;
9643;SDS011;4860;50.900;4.720;2023-05-19T03:53:42;0.40;;;0.40;;
9643;SDS011;4860;50.900;4.720;2023-05-19T03:56:09;0.40;;;0.40;;
9643;SDS011;4860;50.900;4.720;2023-05-19T03:58:38;0.40;;;0.40;;
9643;SDS011;4860;50.900;4.720;2023-05-19T04:01:07;0.30;;;0.30;;
9643;SDS011;4860;50.900;4.720;2023-05-19T04:03:33;0.40;;;0.40;;
9643;SDS011;4860;50.900;4.720;2023-05-19T04:05:59;0.30;;;0.30;;
9643;SDS011;4860;50.900;4.720;2023-05-19T04:08:25;0.30;;;0.30;;
9643;SDS011;4860;50.900;4.720;2023-05-19T04:10:52;0.40;;;0.40;;
9643;SDS011;4860;50.900;4.720;2023-05-19T04:13:18;0.30;;;0.30;;
9643;SDS011;4860;50.900;4.720;2023-05-19T04:15:44;0.40;;;0.40;;
9643;SDS011;4860;50.900;4.720;2023-05-19T04:18:11;0.40;;;0.40;;
9643;SDS011;4860;50.900;4.720;2023-05-19T04:20:37;0.40;;;0.40;;
9643;SDS011;4860;50.900;4.720;2023-05-19T04:23:03;0.40;;;0.40;;
9643;SDS011;4860;50.900;4.720;2023-05-19T04:25:29;0.40;;;0.40;;
9643;SDS011;4860;50.900;4.720;2023-05-19T04:27:55;0.30;;;0.30;;
9643;SDS011;4860;50.900;4.720;2023-05-19T04:30:22;0.40;;;0.40;;
9643;SDS011;4860;50.900;4.720;2023-05-19T04:32:48;0.40;;;0.40;;
9643;SDS011;4860;50.900;4.720;2023-05-19T04:35:15;0.50;;;0.50;;
9643;SDS011;4860;50.900;4.720;2023-05-19T04:37:44;0.40;;;0.40;;
9643;SDS011;4860;50.900;4.720;2023-05-19T04:40:11;0.40;;;0.40;;
9643;SDS011;4860;50.900;4.720;2023-05-19T04:42:37;0.37;;;0.37;;
9643;SDS011;4860;50.900;4.720;2023-05-19T04:45:07;0.30;;;0.30;;
9643;SDS011;4860;50.900;4.720;2023-05-19T04:47:34;0.40;;;0.40;;
9643;SDS011;4860;50.900;4.720;2023-05-19T04:50:02;0.30;;;0.30;;
9643;SDS011;4860;50.900;4.720;2023-05-19T04:52:28;0.40;;;0.40;;
9643;SDS011;4860;50.900;4.720;2023-05-19T04:54:55;0.40;;;0.40;;
9643;SDS011;4860;50.900;4.720;2023-05-19T04:57:21;0.30;;;0.30;;
9643;SDS011;4860;50.900;4.720;2023-05-19T04:59:47;0.40;;;0.40;;
9643;SDS011;4860;50.900;4.720;2023-05-19T05:02:14;0.40;;;0.40;;
9643;SDS011;4860;50.900;4.720;2023-05-19T05:04:40;0.37;;;0.37;;
9643;SDS011;4860;50.900;4.720;2023-05-19T05:07:11;0.30;;;0.30;;
9643;SDS011;4860;50.900;4.720;2023-05-19T05:09:37;0.40;;;0.40;;
9643;SDS011;4860;50.900;4.720;2023-05-19T05:12:03;0.40;;;0.40;;
9643;SDS011;4860;50.900;4.720;2023-05-19T05:14:31;0.30;;;0.30;;
9643;SDS011;4860;50.900;4.720;2023-05-19T05:16:58;0.40;;;0.40;;
9643;SDS011;4860;50.900;4.720;2023-05-19T05:19:25;0.37;;;0.37;;
9643;SDS011;4860;50.900;4.720;2023-05-19T05:21:51;0.40;;;0.40;;
9643;SDS011;4860;50.900;4.720;2023-05-19T05:24:18;0.30;;;0.30;;
9643;SDS011;4860;50.900;4.720;2023-05-19T05:26:45;0.20;;;0.20;;
9643;SDS011;4860;50.900;4.720;2023-05-19T05:29:11;0.30;;;0.30;;
9643;SDS011;4860;50.900;4.720;2023-05-19T05:31:37;0.30;;;0.30;;
9643;SDS011;4860;50.900;4.720;2023-05-19T05:34:03;0.30;;;0.30;;
9643;SDS011;4860;50.900;4.720;2023-05-19T05:36:29;0.40;;;0.40;;
9643;SDS011;4860;50.900;4.720;2023-05-19T05:38:56;0.40;;;0.40;;
9643;SDS011;4860;50.900;4.720;2023-05-19T05:41:23;0.30;;;0.30;;
9643;SDS011;4860;50.900;4.720;2023-05-19T05:43:51;0.30;;;0.30;;
9643;SDS011;4860;50.900;4.720;2023-05-19T05:46:17;0.40;;;0.40;;
9643;SDS011;4860;50.900;4.720;2023-05-19T05:48:43;0.32;;;0.32;;
9643;SDS011;4860;50.900;4.720;2023-05-19T05:51:10;0.30;;;0.30;;
9643;SDS011;4860;50.900;4.720;2023-05-19T05:53:39;0.30;;;0.30;;
9643;SDS011;4860;50.900;4.720;2023-05-19T05:56:09;0.30;;;0.30;;
9643;SDS011;4860;50.900;4.720;2023-05-19T05:58:35;0.30;;;0.30;;
9643;SDS011;4860;50.900;4.720;2023-05-19T06:01:02;0.30;;;0.30;;
9643;SDS011;4860;50.900;4.720;2023-05-19T06:03:28;0.30;;;0.30;;
9643;SDS011;4860;50.900;4.720;2023-05-19T06:05:56;0.30;;;0.30;;
9643;SDS011;4860;50.900;4.720;2023-05-19T06:08:22;0.30;;;0.30;;
9643;SDS011;4860;50.900;4.720;2023-05-19T06:10:48;0.32;;;0.32;;
9643;SDS011;4860;50.900;4.720;2023-05-19T06:13:14;0.30;;;0.30;;
9643;SDS011;4860;50.900;4.720;2023-05-19T06:15:46;0.30;;;0.30;;
9643;SDS011;4860;50.900;4.720;2023-05-19T06:18:12;0.30;;;0.30;;
9643;SDS011;4860;50.900;4.720;2023-05-19T06:20:38;0.30;;;0.30;;
9643;SDS011;4860;50.900;4.720;2023-05-19T06:23:04;0.30;;;0.30;;
9643;SDS011;4860;50.900;4.720;2023-05-19T06:25:31;0.30;;;0.30;;
9643;SDS011;4860;50.900;4.720;2023-05-19T06:27:57;0.30;;;0.30;;
9643;SDS011;4860;50.900;4.720;2023-05-19T06:30:23;0.30;;;0.30;;
9643;SDS011;4860;50.900;4.720;2023-05-19T06:32:49;0.20;;;0.20;;
9643;SDS011;4860;50.900;4.720;2023-05-19T06:35:15;0.30;;;0.30;;
9643;SDS011;4860;50.900;4.720;2023-05-19T06:37:41;0.30;;;0.30;;
9643;SDS011;4860;50.900;4.720;2023-05-19T06:40:08;0.30;;;0.30;;
9643;SDS011;4860;50.900;4.720;2023-05-19T06:42:34;0.30;;;0.30;;
9643;SDS011;4860;50.900;4.720;2023-05-19T06:45:00;0.30;;;0.30;;
9643;SDS011;4860;50.900;4.720;2023-05-19T06:47:27;0.30;;;0.30;;
9643;SDS011;4860;50.900;4.720;2023-05-19T06:49:53;0.30;;;0.30;;
9643;SDS011;4860;50.900;4.720;2023-05-19T06:52:20;0.20;;;0.20;;
9643;SDS011;4860;50.900;4.720;2023-05-19T06:54:47;0.30;;;0.30;;
9643;SDS011;4860;50.900;4.720;2023-05-19T06:57:13;0.30;;;0.30;;
9643;SDS011;4860;50.900;4.720;2023-05-19T06:59:39;0.20;;;0.20;;
9643;SDS011;4860;50.900;4.720;2023-05-19T07:02:07;0.20;;;0.20;;
9643;SDS011;4860;50.900;4.720;2023-05-19T07:04:33;0.20;;;0.20;;
9643;SDS011;4860;50.900;4.720;2023-05-19T07:06:59;0.22;;;0.22;;
9643;SDS011;4860;50.900;4.720;2023-05-19T07:09:25;0.20;;;0.20;;
9643;SDS011;4860;50.900;4.720;2023-05-19T07:11:52;0.20;;;0.20;;
9643;SDS011;4860;50.900;4.720;2023-05-19T07:14:19;0.30;;;0.30;;
9643;SDS011;4860;50.900;4.720;2023-05-19T07:16:45;0.20;;;0.20;;
9643;SDS011;4860;50.900;4.720;2023-05-19T07:19:11;0.30;;;0.30;;
9643;SDS011;4860;50.900;4.720;2023-05-19T07:21:37;0.22;;;0.22;;
9643;SDS011;4860;50.900;4.720;2023-05-19T07:24:03;0.20;;;0.20;;
9643;SDS011;4860;50.900;4.720;2023-05-19T07:26:30;0.20;;;0.20;;
9643;SDS011;4860;50.900;4.720;2023-05-19T07:28:56;0.20;;;0.20;;
9643;SDS011;4860;50.900;4.720;2023-05-19T07:31:22;0.10;;;0.10;;
9643;SDS011;4860;50.900;4.720;2023-05-19T07:33:49;0.17;;;0.17;;
9643;SDS011;4860;50.900;4.720;2023-05-19T07:36:15;0.10;;;0.10;;
9643;SDS011;4860;50.900;4.720;2023-05-19T07:38:41;0.15;;;0.15;;
9643;SDS011;4860;50.900;4.720;2023-05-19T07:41:08;0.10;;;0.10;;
9643;SDS011;4860;50.900;4.720;2023-05-19T07:43:36;0.13;;;0.13;;
9643;SDS011;4860;50.900;4.720;2023-05-19T07:46:02;0.10;;;0.10;;
9643;SDS011;4860;50.900;4.720;2023-05-19T07:48:28;0.20;;;0.20;;
9643;SDS011;4860;50.900;4.720;2023-05-19T07:50:54;0.20;;;0.20;;
9643;SDS011;4860;50.900;4.720;2023-05-19T07:53:21;0.20;;;0.20;;
9643;SDS011;4860;50.900;4.720;2023-05-19T07:55:47;0.10;;;0.10;;
9643;SDS011;4860;50.900;4.720;2023-05-19T07:58:14;0.20;;;0.20;;
9643;SDS011;4860;50.900;4.720;2023-05-19T08:00:40;0.10;;;0.10;;
9643;SDS011;4860;50.900;4.720;2023-05-19T08:03:10;0.20;;;0.20;;
9643;SDS011;4860;50.900;4.720;2023-05-19T08:05:37;0.10;;;0.10;;
9643;SDS011;4860;50.900;4.720;2023-05-19T08:08:03;0.10;;;0.10;;
9643;SDS011;4860;50.900;4.720;2023-05-19T08:10:29;0.10;;;0.10;;
9643;SDS011;4860;50.900;4.720;2023-05-19T08:12:55;0.10;;;0.10;;
9643;SDS011;4860;50.900;4.720;2023-05-19T08:15:22;0.13;;;0.13;;
9643;SDS011;4860;50.900;4.720;2023-05-19T08:17:48;0.10;;;0.10;;
9643;SDS011;4860;50.900;4.720;2023-05-19T08:20:15;0.10;;;0.10;;
9643;SDS011;4860;50.900;4.720;2023-05-19T08:22:41;0.10;;;0.10;;
9643;SDS011;4860;50.900;4.720;2023-05-19T08:25:07;0.13;;;0.13;;
9643;SDS011;4860;50.900;4.720;2023-05-19T08:27:34;0.10;;;0.10;;
9643;SDS011;4860;50.900;4.720;2023-05-19T08:30:00;0.10;;;0.10;;
9643;SDS011;4860;50.900;4.720;2023-05-19T08:32:26;0.10;;;0.10;;
9643;SDS011;4860;50.900;4.720;2023-05-19T08:34:52;0.20;;;0.20;;
9643;SDS011;4860;50.900;4.720;2023-05-19T08:37:18;0.10;;;0.10;;
9643;SDS011;4860;50.900;4.720;2023-05-19T08:39:45;0.10;;;0.10;;
9643;SDS011;4860;50.900;4.720;2023-05-19T08:42:11;0.10;;;0.10;;
9643;SDS011;4860;50.900;4.720;2023-05-19T08:44:37;0.10;;;0.10;;
9643;SDS011;4860;50.900;4.720;2023-05-19T08:47:04;0.10;;;0.10;;
9643;SDS011;4860;50.900;4.720;2023-05-19T08:49:36;0.10;;;0.10;;
9643;SDS011;4860;50.900;4.720;2023-05-19T08:54:52;0.10;;;0.10;;
9643;SDS011;4860;50.900;4.720;2023-05-19T08:57:21;0.10;;;0.10;;
9643;SDS011;4860;50.900;4.720;2023-05-19T08:59:48;0.10;;;0.10;;
9643;SDS011;4860;50.900;4.720;2023-05-19T09:02:15;0.10;;;0.10;;
9643;SDS011;4860;50.900;4.720;2023-05-19T09:04:41;0.10;;;0.10;;
9643;SDS011;4860;50.900;4.720;2023-05-19T09:07:11;0.10;;;0.10;;
9643;SDS011;4860;50.900;4.720;2023-05-19T09:09:38;0.10;;;0.10;;
9643;SDS011;4860;50.900;4.720;2023-05-19T09:12:07;0.10;;;0.10;;
9643;SDS011;4860;50.900;4.720;2023-05-19T09:14:34;0.10;;;0.10;;
9643;SDS011;4860;50.900;4.720;2023-05-19T09:17:01;0.05;;;0.05;;
9643;SDS011;4860;50.900;4.720;2023-05-19T09:19:27;0.05;;;0.05;;
9643;SDS011;4860;50.900;4.720;2023-05-19T09:21:57;0.10;;;0.10;;
9643;SDS011;4860;50.900;4.720;2023-05-19T09:24:25;0.10;;;0.10;;
9643;SDS011;4860;50.900;4.720;2023-05-19T09:26:52;0.10;;;0.10;;
9643;SDS011;4860;50.900;4.720;2023-05-19T09:29:19;0.10;;;0.10;;
9643;SDS011;4860;50.900;4.720;2023-05-19T09:31:49;0.10;;;0.10;;
9643;SDS011;4860;50.900;4.720;2023-05-19T09:34:15;0.10;;;0.10;;
9643;SDS011;4860;50.900;4.720;2023-05-19T09:36:42;0.10;;;0.10;;
9643;SDS011;4860;50.900;4.720;2023-05-19T09:39:12;0.08;;;0.08;;
9643;SDS011;4860;50.900;4.720;2023-05-19T09:41:38;0.10;;;0.10;;
9643;SDS011;4860;50.900;4.720;2023-05-19T09:44:05;0.10;;;0.10;;
9643;SDS011;4860;50.900;4.720;2023-05-19T09:46:31;0.10;;;0.10;;
9643;SDS011;4860;50.900;4.720;2023-05-19T09:49:07;0.10;;;0.10;;
9643;SDS011;4860;50.900;4.720;2023-05-19T09:51:34;0.10;;;0.10;;
9643;SDS011;4860;50.900;4.720;2023-05-19T09:54:03;0.10;;;0.10;;
9643;SDS011;4860;50.900;4.720;2023-05-19T09:56:30;0.03;;;0.03;;
9643;SDS011;4860;50.900;4.720;2023-05-19T09:58:57;0.10;;;0.10;;
9643;SDS011;4860;50.900;4.720;2023-05-19T10:01:23;0.10;;;0.10;;
9643;SDS011;4860;50.900;4.720;2023-05-19T10:03:50;0.10;;;0.10;;
9643;SDS011;4860;50.900;4.720;2023-05-19T10:06:17;0.10;;;0.10;;
9643;SDS011;4860;50.900;4.720;2023-05-19T10:08:43;0.10;;;0.10;;
9643;SDS011;4860;50.900;4.720;2023-05-19T10:11:10;0.10;;;0.10;;
9643;SDS011;4860;50.900;4.720;2023-05-19T10:13:36;0.10;;;0.10;;
9643;SDS011;4860;50.900;4.720;2023-05-19T10:16:03;0.10;;;0.10;;
9643;SDS011;4860;50.900;4.720;2023-05-19T10:18:30;0.10;;;0.10;;
9643;SDS011;4860;50.900;4.720;2023-05-19T10:20:58;0.10;;;0.10;;
9643;SDS011;4860;50.900;4.720;2023-05-19T10:23:25;0.05;;;0.05;;
9643;SDS011;4860;50.900;4.720;2023-05-19T10:25:52;0.10;;;0.10;;
9643;SDS011;4860;50.900;4.720;2023-05-19T10:28:20;0.10;;;0.10;;
9643;SDS011;4860;50.900;4.720;2023-05-19T10:30:49;0.10;;;0.10;;
9643;SDS011;4860;50.900;4.720;2023-05-19T10:33:18;0.10;;;0.10;;
9643;SDS011;4860;50.900;4.720;2023-05-19T10:45:52;0.10;;;0.10;;
9643;SDS011;4860;50.900;4.720;2023-05-19T10:48:19;0.05;;;0.05;;
9643;SDS011;4860;50.900;4.720;2023-05-19T10:50:47;0.10;;;0.10;;
9643;SDS011;4860;50.900;4.720;2023-05-19T10:53:14;0.03;;;0.03;;
9643;SDS011;4860;50.900;4.720;2023-05-19T10:58:12;0.08;;;0.08;;
9643;SDS011;4860;50.900;4.720;2023-05-19T11:00:38;0.10;;;0.10;;
9643;SDS011;4860;50.900;4.720;2023-05-19T11:03:12;0.10;;;0.10;;
9643;SDS011;4860;50.900;4.720;2023-05-19T11:05:39;0.10;;;0.10;;
9643;SDS011;4860;50.900;4.720;2023-05-19T11:08:05;0.10;;;0.10;;
9643;SDS011;4860;50.900;4.720;2023-05-19T11:10:36;0.10;;;0.10;;
9643;SDS011;4860;50.900;4.720;2023-05-19T11:13:05;0.10;;;0.10;;
9643;SDS011;4860;50.900;4.720;2023-05-19T11:15:35;0.10;;;0.10;;
9643;SDS011;4860;50.900;4.720;2023-05-19T11:18:01;0.10;;;0.10;;
9643;SDS011;4860;50.900;4.720;2023-05-19T11:20:28;0.10;;;0.10;;
9643;SDS011;4860;50.900;4.720;2023-05-19T11:23:14;0.10;;;0.10;;
9643;SDS011;4860;50.900;4.720;2023-05-19T11:25:45;0.10;;;0.10;;
9643;SDS011;4860;50.900;4.720;2023-05-19T11:28:11;0.10;;;0.10;;
9643;SDS011;4860;50.900;4.720;2023-05-19T11:30:40;0.10;;;0.10;;
9643;SDS011;4860;50.900;4.720;2023-05-19T11:33:07;0.10;;;0.10;;
9643;SDS011;4860;50.900;4.720;2023-05-19T11:35:34;0.10;;;0.10;;
9643;SDS011;4860;50.900;4.720;2023-05-19T11:38:01;0.10;;;0.10;;
9643;SDS011;4860;50.900;4.720;2023-05-19T11:40:28;0.05;;;0.05;;
9643;SDS011;4860;50.900;4.720;2023-05-19T11:42:54;0.10;;;0.10;;
9643;SDS011;4860;50.900;4.720;2023-05-19T11:45:24;0.10;;;0.10;;
9643;SDS011;4860;50.900;4.720;2023-05-19T11:47:50;0.10;;;0.10;;
9643;SDS011;4860;50.900;4.720;2023-05-19T11:50:17;0.10;;;0.10;;
9643;SDS011;4860;50.900;4.720;2023-05-19T11:52:44;0.10;;;0.10;;
9643;SDS011;4860;50.900;4.720;2023-05-19T11:55:15;0.10;;;0.10;;
9643;SDS011;4860;50.900;4.720;2023-05-19T11:57:49;0.00;;;0.00;;
9643;SDS011;4860;50.900;4.720;2023-05-19T12:00:15;0.10;;;0.10;;
9643;SDS011;4860;50.900;4.720;2023-05-19T12:02:42;0.00;;;0.00;;
9643;SDS011;4860;50.900;4.720;2023-05-19T12:05:16;0.10;;;0.10;;
9643;SDS011;4860;50.900;4.720;2023-05-19T12:07:42;0.10;;;0.10;;
9643;SDS011;4860;50.900;4.720;2023-05-19T12:10:09;0.10;;;0.10;;
9643;SDS011;4860;50.900;4.720;2023-05-19T12:12:35;0.10;;;0.10;;
9643;SDS011;4860;50.900;4.720;2023-05-19T12:15:01;0.00;;;0.00;;
9643;SDS011;4860;50.900;4.720;2023-05-19T12:17:28;0.00;;;0.00;;
9643;SDS011;4860;50.900;4.720;2023-05-19T12:19:57;0.10;;;0.10;;
9643;SDS011;4860;50.900;4.720;2023-05-19T12:22:25;0.10;;;0.10;;
9643;SDS011;4860;50.900;4.720;2023-05-19T12:24:51;0.08;;;0.08;;
9643;SDS011;4860;50.900;4.720;2023-05-19T12:27:18;0.10;;;0.10;;
9643;SDS011;4860;50.900;4.720;2023-05-19T12:29:51;0.10;;;0.10;;
9643;SDS011;4860;50.900;4.720;2023-05-19T12:32:21;0.00;;;0.00;;
9643;SDS011;4860;50.900;4.720;2023-05-19T12:34:47;0.10;;;0.10;;
9643;SDS011;4860;50.900;4.720;2023-05-19T12:37:14;0.00;;;0.00;;
9643;SDS011;4860;50.900;4.720;2023-05-19T12:39:41;0.00;;;0.00;;
9643;SDS011;4860;50.900;4.720;2023-05-19T12:42:07;0.10;;;0.10;;
9643;SDS011;4860;50.900;4.720;2023-05-19T12:44:41;0.10;;;0.10;;
9643;SDS011;4860;50.900;4.720;2023-05-19T12:47:08;0.00;;;0.00;;
9643;SDS011;4860;50.900;4.720;2023-05-19T12:49:34;0.10;;;0.10;;
9643;SDS011;4860;50.900;4.720;2023-05-19T12:52:00;0.00;;;0.00;;
9643;SDS011;4860;50.900;4.720;2023-05-19T12:54:31;0.10;;;0.10;;
9643;SDS011;4860;50.900;4.720;2023-05-19T12:56:57;0.00;;;0.00;;
9643;SDS011;4860;50.900;4.720;2023-05-19T12:59:24;0.05;;;0.05;;
9643;SDS011;4860;50.900;4.720;2023-05-19T13:01:57;0.00;;;0.00;;
9643;SDS011;4860;50.900;4.720;2023-05-19T13:04:23;0.10;;;0.10;;
9643;SDS011;4860;50.900;4.720;2023-05-19T13:06:51;0.10;;;0.10;;
9643;SDS011;4860;50.900;4.720;2023-05-19T13:09:17;0.00;;;0.00;;
9643;SDS011;4860;50.900;4.720;2023-05-19T13:11:44;0.10;;;0.10;;
9643;SDS011;4860;50.900;4.720;2023-05-19T13:14:15;0.00;;;0.00;;
9643;SDS011;4860;50.900;4.720;2023-05-19T13:16:42;0.00;;;0.00;;
9643;SDS011;4860;50.900;4.720;2023-05-19T13:19:11;0.00;;;0.00;;
9643;SDS011;4860;50.900;4.720;2023-05-19T13:21:38;0.10;;;0.10;;
9643;SDS011;4860;50.900;4.720;2023-05-19T13:24:04;0.00;;;0.00;;
9643;SDS011;4860;50.900;4.720;2023-05-19T13:26:30;0.10;;;0.10;;
9643;SDS011;4860;50.900;4.720;2023-05-19T13:28:56;0.03;;;0.03;;
9643;SDS011;4860;50.900;4.720;2023-05-19T13:31:22;0.10;;;0.10;;
9643;SDS011;4860;50.900;4.720;2023-05-19T13:33:48;0.08;;;0.08;;
9643;SDS011;4860;50.900;4.720;2023-05-19T13:36:15;0.00;;;0.00;;
9643;SDS011;4860;50.900;4.720;2023-05-19T13:38:41;0.10;;;0.10;;
9643;SDS011;4860;50.900;4.720;2023-05-19T13:41:07;0.10;;;0.10;;
9643;SDS011;4860;50.900;4.720;2023-05-19T13:43:34;0.10;;;0.10;;
9643;SDS011;4860;50.900;4.720;2023-05-19T13:46:00;0.00;;;0.00;;
9643;SDS011;4860;50.900;4.720;2023-05-19T13:48:26;0.10;;;0.10;;
9643;SDS011;4860;50.900;4.720;2023-05-19T13:50:52;0.10;;;0.10;;
9643;SDS011;4860;50.900;4.720;2023-05-19T13:53:19;0.00;;;0.00;;
9643;SDS011;4860;50.900;4.720;2023-05-19T13:55:46;0.00;;;0.00;;
9643;SDS011;4860;50.900;4.720;2023-05-19T13:58:12;0.10;;;0.10;;
9643;SDS011;4860;50.900;4.720;2023-05-19T14:00:40;0.00;;;0.00;;
9643;SDS011;4860;50.900;4.720;2023-05-19T14:03:07;0.00;;;0.00;;
9643;SDS011;4860;50.900;4.720;2023-05-19T14:05:33;0.10;;;0.10;;
9643;SDS011;4860;50.900;4.720;2023-05-19T14:07:59;0.00;;;0.00;;
9643;SDS011;4860;50.900;4.720;2023-05-19T14:10:27;0.10;;;0.10;;
9643;SDS011;4860;50.900;4.720;2023-05-19T14:12:53;0.10;;;0.10;;
9643;SDS011;4860;50.900;4.720;2023-05-19T14:15:23;0.00;;;0.00;;
9643;SDS011;4860;50.900;4.720;2023-05-19T14:17:50;0.00;;;0.00;;
9643;SDS011;4860;50.900;4.720;2023-05-19T14:20:17;0.00;;;0.00;;
9643;SDS011;4860;50.900;4.720;2023-05-19T14:22:43;0.00;;;0.00;;
9643;SDS011;4860;50.900;4.720;2023-05-19T14:25:09;0.00;;;0.00;;
9643;SDS011;4860;50.900;4.720;2023-05-19T14:27:36;0.00;;;0.00;;
9643;SDS011;4860;50.900;4.720;2023-05-19T14:30:04;0.00;;;0.00;;
9643;SDS011;4860;50.900;4.720;2023-05-19T14:32:30;0.00;;;0.00;;
9643;SDS011;4860;50.900;4.720;2023-05-19T14:34:56;0.00;;;0.00;;
9643;SDS011;4860;50.900;4.720;2023-05-19T14:37:22;0.00;;;0.00;;
9643;SDS011;4860;50.900;4.720;2023-05-19T14:39:51;0.00;;;0.00;;
9643;SDS011;4860;50.900;4.720;2023-05-19T14:42:17;0.00;;;0.00;;
9643;SDS011;4860;50.900;4.720;2023-05-19T14:44:43;0.00;;;0.00;;
9643;SDS011;4860;50.900;4.720;2023-05-19T14:47:09;0.00;;;0.00;;
9643;SDS011;4860;50.900;4.720;2023-05-19T14:49:36;0.00;;;0.00;;
9643;SDS011;4860;50.900;4.720;2023-05-19T14:52:02;0.00;;;0.00;;
9643;SDS011;4860;50.900;4.720;2023-05-19T14:54:28;0.00;;;0.00;;
9643;SDS011;4860;50.900;4.720;2023-05-19T14:56:55;0.00;;;0.00;;
9643;SDS011;4860;50.900;4.720;2023-05-19T14:59:21;0.00;;;0.00;;
9643;SDS011;4860;50.900;4.720;2023-05-19T15:01:47;0.00;;;0.00;;
9643;SDS011;4860;50.900;4.720;2023-05-19T15:04:13;0.00;;;0.00;;
9643;SDS011;4860;50.900;4.720;2023-05-19T15:06:39;0.00;;;0.00;;
9643;SDS011;4860;50.900;4.720;2023-05-19T15:09:05;0.00;;;0.00;;
9643;SDS011;4860;50.900;4.720;2023-05-19T15:11:32;0.00;;;0.00;;
9643;SDS011;4860;50.900;4.720;2023-05-19T15:13:58;0.00;;;0.00;;
9643;SDS011;4860;50.900;4.720;2023-05-19T15:16:24;0.00;;;0.00;;
9643;SDS011;4860;50.900;4.720;2023-05-19T15:18:50;0.00;;;0.00;;
9643;SDS011;4860;50.900;4.720;2023-05-19T15:21:16;0.00;;;0.00;;
9643;SDS011;4860;50.900;4.720;2023-05-19T15:23:42;0.00;;;0.00;;
9643;SDS011;4860;50.900;4.720;2023-05-19T15:26:09;0.00;;;0.00;;
9643;SDS011;4860;50.900;4.720;2023-05-19T15:28:35;0.00;;;0.00;;
9643;SDS011;4860;50.900;4.720;2023-05-19T15:31:01;0.00;;;0.00;;
9643;SDS011;4860;50.900;4.720;2023-05-19T15:33:27;0.00;;;0.00;;
9643;SDS011;4860;50.900;4.720;2023-05-19T15:35:53;0.00;;;0.00;;
9643;SDS011;4860;50.900;4.720;2023-05-19T15:38:20;0.00;;;0.00;;
9643;SDS011;4860;50.900;4.720;2023-05-19T15:40:46;0.00;;;0.00;;
9643;SDS011;4860;50.900;4.720;2023-05-19T15:43:12;0.00;;;0.00;;
9643;SDS011;4860;50.900;4.720;2023-05-19T15:45:38;0.00;;;0.00;;
9643;SDS011;4860;50.900;4.720;2023-05-19T15:48:04;0.00;;;0.00;;